Карточка аэропорта USTR

Внимание!
Информация на этой странице в стадии наполнения.
Если вы не увидели какой-то информации, или заметили неточность - пожалуйста сообщите нам!
Спасибо!
Команда RU-STAFF
Название аэропортаРощино
Название аэропорта (англ.)Roshschino
Превышение378 ft. (115.2 m.)
Координаты57°10.098', 65°19.002'
Высота перехода3000ft
Эшелон переходаQNH⩾1013hPa:FL040; QNH⩾977hPa:FL050; QNH⩽977hPa:FL060
Коды ответчика5101-5137
Зона ОрВДТюмень РПИ (USTV)
Данные METARUSTR 051100Z 24007MPS 9999 BKN016CB 01/M04 Q1011 R21/190060 R30/450355 TEMPO 27014MPS 0500 +SHSNRA VV002
Проноз погоды (TAF)USTR 050741Z 0509/0609 27005G13MPS 6000 -SHSNRA BKN016CB TEMPO 0509/0515 0800 +SHSNRA VV002 FM051500 33005G10MPS 6000 -SHSN BKN016CB TEMPO 0515/0521 0800 +SHSN SCT003 BKN016CB BECMG 0521/0523 35003G08MPS 9999 NSW
NOTAMshow/hide NOTAM
AWOS   TABLE

Информация о ВПП

ВПП Длина ВПП (м.) Покрытие Курс ВПП Частота ILS
033003Асфальтобетон34108.3
213003Асфальтобетон214110.7
122704Асфальтобетон121 
302704Асфальтобетон301 

Диспетчерские позиции

Позывной Наименование органа УВД Частота
USTR_TWRТюмень-Старт118.200
USTR_GNDТюмень-Руление119.000
USTR_R_APPТюмень-Круг126.100



Спутниковое изображение